Time;durP1;ratioP1;P1;durP2;ratioP2;P2;SDS_P1;SDS_P2;PMS_P1;PMS_P2;Temp;Humidity;BMP_temperature;BMP_pressure;BME280_temperature;BME280_humidity;BME280_pressure;Samples;Min_cycle;Max_cycle;Signal;HPM_P1;HPM_P2
2022/01/05 00:01:21;;;;;;;0.30;0.15;;;;;;;;;;4213672;28;20055;-43
2022/01/05 00:03:22;;;;;;;0.90;0.30;;;;;;;;;;4213544;28;20135;-43
2022/01/05 00:05:23;;;;;;;0.50;0.30;;;;;;;;;;4213378;28;20056;-43
2022/01/05 00:07:24;;;;;;;0.40;0.20;;;;;;;;;;4212879;28;20055;-43
2022/01/05 00:09:25;;;;;;;0.63;0.30;;;;;;;;;;4213394;28;20094;-43
2022/01/05 00:11:25;;;;;;;0.47;0.17;;;;;;;;;;4213460;28;20109;-43
2022/01/05 00:13:26;;;;;;;0.13;0.13;;;;;;;;;;4212558;28;20086;-43
2022/01/05 00:15:27;;;;;;;0.20;0.10;;;;;;;;;;4213260;28;20052;-43
2022/01/05 00:17:29;;;;;;;0.52;0.20;;;;;;;;;;4211091;28;20094;-43
2022/01/05 00:19:32;;;;;;;1.08;0.28;;;;;;;;;;4205878;28;20044;-43
2022/01/05 00:21:33;;;;;;;0.10;0.10;;;;;;;;;;4196418;28;20397;-43
2022/01/05 00:23:33;;;;;;;0.38;0.20;;;;;;;;;;4204489;28;20055;-43
2022/01/05 00:25:35;;;;;;;0.28;0.10;;;;;;;;;;4202624;28;20061;-44
2022/01/05 00:27:36;;;;;;;0.40;0.30;;;;;;;;;;4196594;28;20056;-43
2022/01/05 00:29:37;;;;;;;0.40;0.25;;;;;;;;;;4196683;28;20498;-43
2022/01/05 00:31:38;;;;;;;0.38;0.10;;;;;;;;;;4198975;28;20091;-42
2022/01/05 00:33:38;;;;;;;0.25;0.20;;;;;;;;;;4199746;28;20162;-44
2022/01/05 00:35:39;;;;;;;0.25;0.13;;;;;;;;;;4199564;28;20056;-43
2022/01/05 00:37:40;;;;;;;0.40;0.28;;;;;;;;;;4198821;28;20097;-43
2022/01/05 00:39:41;;;;;;;0.30;0.20;;;;;;;;;;4199227;28;20488;-43
2022/01/05 00:41:42;;;;;;;0.45;0.20;;;;;;;;;;4199125;28;20153;-43
2022/01/05 00:43:43;;;;;;;1.13;0.20;;;;;;;;;;4199138;28;20048;-43
2022/01/05 00:45:44;;;;;;;0.35;0.17;;;;;;;;;;4199237;28;20056;-43
2022/01/05 00:47:45;;;;;;;0.80;0.20;;;;;;;;;;4200054;28;20111;-43
2022/01/05 00:49:46;;;;;;;0.57;0.20;;;;;;;;;;4199205;28;20122;-43
2022/01/05 00:51:47;;;;;;;0.35;0.20;;;;;;;;;;4198652;28;20048;-43
2022/01/05 00:53:48;;;;;;;0.73;0.20;;;;;;;;;;4198957;28;20098;-43
2022/01/05 00:55:49;;;;;;;0.80;0.22;;;;;;;;;;4198950;28;20040;-44
2022/01/05 00:57:52;;;;;;;0.10;0.10;;;;;;;;;;4202676;28;20455;-43
2022/01/05 00:59:53;;;;;;;0.40;0.20;;;;;;;;;;4215937;28;20073;-43
2022/01/05 01:01:53;;;;;;;0.75;0.20;;;;;;;;;;4215603;28;20047;-43
2022/01/05 01:03:54;;;;;;;0.52;0.40;;;;;;;;;;4215877;28;20048;-43
2022/01/05 01:05:56;;;;;;;0.25;0.25;;;;;;;;;;4215503;28;20052;-43
2022/01/05 01:07:57;;;;;;;0.20;0.10;;;;;;;;;;4215005;28;20494;-43
2022/01/05 01:09:58;;;;;;;0.20;0.20;;;;;;;;;;4215449;28;20107;-43
2022/01/05 01:11:59;;;;;;;0.20;0.10;;;;;;;;;;4215450;28;20189;-43
2022/01/05 01:14:00;;;;;;;0.22;0.20;;;;;;;;;;4215421;28;20126;-43
2022/01/05 01:16:01;;;;;;;0.40;0.28;;;;;;;;;;4213268;28;20043;-43
2022/01/05 01:18:02;;;;;;;0.15;0.10;;;;;;;;;;4197561;28;20053;-43
2022/01/05 01:20:03;;;;;;;0.60;0.40;;;;;;;;;;4215264;28;20050;-44
2022/01/05 01:22:04;;;;;;;0.15;0.10;;;;;;;;;;4215068;28;20047;-43
2022/01/05 01:24:05;;;;;;;0.38;0.17;;;;;;;;;;4215329;28;20157;-43
2022/01/05 01:26:07;;;;;;;0.30;0.17;;;;;;;;;;4201028;28;20529;-43
2022/01/05 01:28:07;;;;;;;0.40;0.15;;;;;;;;;;4198397;28;20118;-42
2022/01/05 01:30:09;;;;;;;0.40;0.10;;;;;;;;;;4198437;28;20099;-43
2022/01/05 01:32:10;;;;;;;0.40;0.22;;;;;;;;;;4203487;28;20132;-43
2022/01/05 01:34:11;;;;;;;0.13;0.13;;;;;;;;;;4215249;28;20060;-43
2022/01/05 01:36:12;;;;;;;0.40;0.20;;;;;;;;;;4215084;28;20104;-42
2022/01/05 01:38:13;;;;;;;0.10;0.10;;;;;;;;;;4214631;28;20445;-36
2022/01/05 01:40:14;;;;;;;0.32;0.30;;;;;;;;;;4215329;28;20051;-41
2022/01/05 01:42:15;;;;;;;0.20;0.20;;;;;;;;;;4213986;28;20399;-35
2022/01/05 01:44:17;;;;;;;0.22;0.17;;;;;;;;;;4215473;28;20099;-34
2022/01/05 01:46:18;;;;;;;0.25;0.17;;;;;;;;;;4215440;28;20052;-34
2022/01/05 01:48:19;;;;;;;0.73;0.15;;;;;;;;;;4214886;28;20399;-34
2022/01/05 01:50:20;;;;;;;0.63;0.22;;;;;;;;;;4215047;28;20102;-35
2022/01/05 01:52:21;;;;;;;0.17;0.10;;;;;;;;;;4214490;28;20094;-36
2022/01/05 01:54:22;;;;;;;0.35;0.10;;;;;;;;;;4214823;28;20048;-35
2022/01/05 01:56:24;;;;;;;0.20;0.20;;;;;;;;;;4214965;28;20063;-35
2022/01/05 01:58:27;;;;;;;0.20;0.20;;;;;;;;;;4214824;28;20067;-35
2022/01/05 02:00:29;;;;;;;0.50;0.20;;;;;;;;;;4214908;28;20113;-35
2022/01/05 02:02:30;;;;;;;0.10;0.10;;;;;;;;;;4215089;28;20048;-36
2022/01/05 02:04:31;;;;;;;0.38;0.10;;;;;;;;;;4214752;28;20052;-35
2022/01/05 02:06:32;;;;;;;0.22;0.10;;;;;;;;;;4214866;28;20051;-35
2022/01/05 02:08:34;;;;;;;0.10;0.10;;;;;;;;;;4214217;28;20105;-35
2022/01/05 02:10:36;;;;;;;0.40;0.20;;;;;;;;;;4214755;28;20039;-35
2022/01/05 02:12:37;;;;;;;1.15;0.30;;;;;;;;;;4214893;28;20048;-35
2022/01/05 02:14:38;;;;;;;0.10;0.10;;;;;;;;;;4214921;28;20518;-35
2022/01/05 02:16:42;;;;;;;0.80;0.20;;;;;;;;;;4214744;28;20147;-35
2022/01/05 02:18:58;;;;;;;0.30;0.20;;;;;;;;;;4214769;28;20055;-35
2022/01/05 02:21:07;;;;;;;0.50;0.30;;;;;;;;;;4214616;28;20043;-35
2022/01/05 02:23:08;;;;;;;0.15;0.10;;;;;;;;;;4214273;28;20055;-35
2022/01/05 02:25:09;;;;;;;0.22;0.10;;;;;;;;;;4214386;28;20044;-35
2022/01/05 02:27:10;;;;;;;0.70;0.30;;;;;;;;;;4214463;28;20052;-36
2022/01/05 02:29:11;;;;;;;0.10;0.10;;;;;;;;;;4214786;28;20055;-35
2022/01/05 02:31:12;;;;;;;0.70;0.20;;;;;;;;;;4214514;28;20040;-35
2022/01/05 02:33:13;;;;;;;2.90;0.20;;;;;;;;;;4214137;28;20139;-35
2022/01/05 02:35:14;;;;;;;0.43;0.20;;;;;;;;;;4214645;28;20052;-35
2022/01/05 02:37:15;;;;;;;0.30;0.20;;;;;;;;;;4214092;28;20128;-36
2022/01/05 02:39:16;;;;;;;0.40;0.20;;;;;;;;;;4214319;28;20047;-36
2022/01/05 02:41:17;;;;;;;0.20;0.10;;;;;;;;;;4214266;28;20048;-35
2022/01/05 02:43:18;;;;;;;0.40;0.20;;;;;;;;;;4214111;28;20097;-35
2022/01/05 02:45:19;;;;;;;0.40;0.10;;;;;;;;;;4196583;28;20053;-35
2022/01/05 02:47:20;;;;;;;0.28;0.10;;;;;;;;;;4213982;28;20044;-35
2022/01/05 02:49:21;;;;;;;0.60;0.25;;;;;;;;;;4214138;28;20381;-36
2022/01/05 02:51:23;;;;;;;0.22;0.10;;;;;;;;;;4214349;28;20090;-35
2022/01/05 02:53:24;;;;;;;0.88;0.30;;;;;;;;;;4213190;28;20446;-35
2022/01/05 02:55:25;;;;;;;2.33;0.30;;;;;;;;;;4214310;28;20055;-36
2022/01/05 02:57:26;;;;;;;0.20;0.10;;;;;;;;;;4196141;28;20048;-35
2022/01/05 02:59:28;;;;;;;0.40;0.20;;;;;;;;;;4214138;28;20044;-35
2022/01/05 03:01:29;;;;;;;0.45;0.20;;;;;;;;;;4214146;28;20052;-35
2022/01/05 03:03:30;;;;;;;0.32;0.20;;;;;;;;;;4214105;28;20058;-35
2022/01/05 03:05:31;;;;;;;0.40;0.20;;;;;;;;;;4213920;28;20442;-35
2022/01/05 03:07:37;;;;;;;0.13;0.10;;;;;;;;;;4213436;28;20044;-35
2022/01/05 03:09:38;;;;;;;0.80;0.45;;;;;;;;;;4214057;28;20537;-35
2022/01/05 03:11:39;;;;;;;0.10;0.10;;;;;;;;;;4214109;28;20051;-34
2022/01/05 03:13:40;;;;;;;0.10;0.10;;;;;;;;;;4214097;28;20090;-35
2022/01/05 03:15:41;;;;;;;0.28;0.10;;;;;;;;;;4214034;28;20395;-35
2022/01/05 03:17:42;;;;;;;0.32;0.25;;;;;;;;;;4212607;28;20048;-35
2022/01/05 03:19:43;;;;;;;0.20;0.10;;;;;;;;;;4197058;28;20052;-35
2022/01/05 03:21:44;;;;;;;0.20;0.10;;;;;;;;;;4196946;28;20052;-35
2022/01/05 03:23:46;;;;;;;0.73;0.30;;;;;;;;;;4201109;28;20056;-35
2022/01/05 03:25:47;;;;;;;0.20;0.10;;;;;;;;;;4213689;28;20048;-35
2022/01/05 03:27:49;;;;;;;0.22;0.10;;;;;;;;;;4213861;28;20055;-35
2022/01/05 03:29:50;;;;;;;0.30;0.10;;;;;;;;;;4213661;28;20063;-35
2022/01/05 03:31:52;;;;;;;0.30;0.10;;;;;;;;;;4213914;28;20056;-35
2022/01/05 03:33:53;;;;;;;0.30;0.03;;;;;;;;;;4213634;28;20060;-35
2022/01/05 03:35:54;;;;;;;0.20;0.10;;;;;;;;;;4213818;28;20526;-35
2022/01/05 03:37:54;;;;;;;0.10;0.10;;;;;;;;;;4213233;28;20059;-39
2022/01/05 03:39:55;;;;;;;0.25;0.10;;;;;;;;;;4213664;28;20083;-35
2022/01/05 03:41:57;;;;;;;0.20;0.10;;;;;;;;;;4213386;28;20484;-35
2022/01/05 03:43:58;;;;;;;0.20;0.10;;;;;;;;;;4213661;28;20388;-34
2022/01/05 03:45:58;;;;;;;0.32;0.10;;;;;;;;;;4213959;28;20094;-35
2022/01/05 03:47:59;;;;;;;0.20;0.15;;;;;;;;;;4213921;28;20120;-35
2022/01/05 03:50:00;;;;;;;0.80;0.10;;;;;;;;;;4213878;28;20055;-35
2022/01/05 03:52:03;;;;;;;0.15;0.10;;;;;;;;;;4213396;28;20617;-36
2022/01/05 03:54:03;;;;;;;0.20;0.10;;;;;;;;;;4213479;28;20097;-35
2022/01/05 03:56:04;;;;;;;0.10;0.10;;;;;;;;;;4205136;28;20053;-36
2022/01/05 03:58:05;;;;;;;0.25;0.20;;;;;;;;;;4196850;28;20052;-35
2022/01/05 04:00:07;;;;;;;0.10;0.10;;;;;;;;;;4197059;28;20102;-35
2022/01/05 04:02:14;;;;;;;0.10;0.10;;;;;;;;;;4196793;28;20053;-35
2022/01/05 04:04:14;;;;;;;0.20;0.20;;;;;;;;;;4196897;28;20048;-35
2022/01/05 04:06:15;;;;;;;0.03;0.03;;;;;;;;;;4198965;28;20557;-35
2022/01/05 04:08:16;;;;;;;0.28;0.10;;;;;;;;;;4199466;28;20407;-35
2022/01/05 04:10:20;;;;;;;0.10;0.10;;;;;;;;;;4199914;28;20095;-35
2022/01/05 04:12:21;;;;;;;0.10;0.10;;;;;;;;;;4199711;28;20083;-36
2022/01/05 04:14:22;;;;;;;0.50;0.25;;;;;;;;;;4199628;28;20150;-35
2022/01/05 04:16:23;;;;;;;0.20;0.17;;;;;;;;;;4199784;28;20089;-35
2022/01/05 04:18:23;;;;;;;0.05;0.05;;;;;;;;;;4182109;28;20095;-35
2022/01/05 04:20:24;;;;;;;0.22;0.17;;;;;;;;;;4199768;28;20067;-35
2022/01/05 04:22:26;;;;;;;0.30;0.10;;;;;;;;;;4198066;28;20052;-34
2022/01/05 04:24:27;;;;;;;0.20;0.08;;;;;;;;;;4199761;28;20109;-35
2022/01/05 04:26:28;;;;;;;0.68;0.20;;;;;;;;;;4199910;28;20435;-35
2022/01/05 04:28:29;;;;;;;0.98;0.22;;;;;;;;;;4199665;28;20098;-35
2022/01/05 04:30:29;;;;;;;0.40;0.10;;;;;;;;;;4199882;28;20523;-35
2022/01/05 04:32:31;;;;;;;0.47;0.20;;;;;;;;;;4199495;28;20063;-35
2022/01/05 04:34:32;;;;;;;0.15;0.10;;;;;;;;;;4199772;28;20049;-35
2022/01/05 04:36:33;;;;;;;0.85;0.30;;;;;;;;;;4199885;28;20456;-36
2022/01/05 04:38:34;;;;;;;0.30;0.10;;;;;;;;;;4199040;28;20040;-36
2022/01/05 04:40:35;;;;;;;0.65;0.20;;;;;;;;;;4199363;28;20098;-35
2022/01/05 04:42:36;;;;;;;0.10;0.10;;;;;;;;;;4199510;28;20057;-35
2022/01/05 04:44:37;;;;;;;0.05;0.05;;;;;;;;;;4199554;28;20434;-35
2022/01/05 04:46:38;;;;;;;0.28;0.13;;;;;;;;;;4198153;28;20052;-35
2022/01/05 04:48:39;;;;;;;0.25;0.10;;;;;;;;;;4199498;28;20546;-35
2022/01/05 04:50:40;;;;;;;0.20;0.10;;;;;;;;;;4199648;28;20092;-36
2022/01/05 04:52:41;;;;;;;0.00;0.00;;;;;;;;;;4198860;28;20117;-35
2022/01/05 04:54:42;;;;;;;0.45;0.10;;;;;;;;;;4199127;28;20400;-35
2022/01/05 04:56:43;;;;;;;0.45;0.20;;;;;;;;;;4199255;28;20056;-35
2022/01/05 04:58:44;;;;;;;0.30;0.10;;;;;;;;;;4199177;28;20538;-36
2022/01/05 05:00:45;;;;;;;0.20;0.10;;;;;;;;;;4199259;28;20091;-35
2022/01/05 05:02:48;;;;;;;0.20;0.10;;;;;;;;;;4199370;28;20147;-37
2022/01/05 05:04:49;;;;;;;0.38;0.10;;;;;;;;;;4199355;28;20052;-35
2022/01/05 05:06:50;;;;;;;0.40;0.17;;;;;;;;;;4198532;28;20503;-35
2022/01/05 05:08:51;;;;;;;0.32;0.20;;;;;;;;;;4199132;28;20098;-35
2022/01/05 05:10:52;;;;;;;0.40;0.15;;;;;;;;;;4181120;28;20093;-34
2022/01/05 05:12:53;;;;;;;0.30;0.20;;;;;;;;;;4198729;28;20052;-35
2022/01/05 05:14:54;;;;;;;0.13;0.10;;;;;;;;;;4198968;28;20102;-36
2022/01/05 05:16:55;;;;;;;0.05;0.00;;;;;;;;;;4198646;28;20048;-35
2022/01/05 05:18:55;;;;;;;0.20;0.20;;;;;;;;;;4199190;28;20091;-35
2022/01/05 05:20:56;;;;;;;0.13;0.10;;;;;;;;;;4199165;28;20082;-35
2022/01/05 05:22:57;;;;;;;0.45;0.20;;;;;;;;;;4198552;28;20091;-34
2022/01/05 05:24:58;;;;;;;0.30;0.20;;;;;;;;;;4198531;28;20198;-33
2022/01/05 05:26:59;;;;;;;0.60;0.10;;;;;;;;;;4198857;28;20067;-36
2022/01/05 05:29:00;;;;;;;0.10;0.10;;;;;;;;;;4198889;28;20496;-36
2022/01/05 05:31:01;;;;;;;0.45;0.30;;;;;;;;;;4197548;28;20118;-36
2022/01/05 05:33:03;;;;;;;0.25;0.20;;;;;;;;;;4198593;28;20496;-38
2022/01/05 05:35:05;;;;;;;0.77;0.20;;;;;;;;;;4181181;28;20057;-36
2022/01/05 05:37:06;;;;;;;0.50;0.30;;;;;;;;;;4198335;28;20480;-36
2022/01/05 05:39:07;;;;;;;0.50;0.20;;;;;;;;;;4198918;28;20094;-36
2022/01/05 05:41:08;;;;;;;0.40;0.30;;;;;;;;;;4210938;28;20094;-36
2022/01/05 05:43:09;;;;;;;0.57;0.20;;;;;;;;;;4214518;28;20487;-36
2022/01/05 05:45:11;;;;;;;0.57;0.17;;;;;;;;;;4214693;28;20400;-35
2022/01/05 05:47:11;;;;;;;0.52;0.20;;;;;;;;;;4214822;28;20048;-36
2022/01/05 05:49:12;;;;;;;1.00;0.20;;;;;;;;;;4214713;28;20088;-36
2022/01/05 05:51:13;;;;;;;0.13;0.13;;;;;;;;;;4214583;28;20067;-36
2022/01/05 05:53:15;;;;;;;0.30;0.20;;;;;;;;;;4214198;28;20403;-36
2022/01/05 05:55:15;;;;;;;0.88;0.20;;;;;;;;;;4194452;28;20488;-35
2022/01/05 05:57:16;;;;;;;0.40;0.10;;;;;;;;;;4197793;28;20052;-36
2022/01/05 05:59:17;;;;;;;0.30;0.20;;;;;;;;;;4198171;28;20052;-36
2022/01/05 06:01:18;;;;;;;0.32;0.10;;;;;;;;;;4197853;28;20052;-35
2022/01/05 06:03:19;;;;;;;1.10;0.40;;;;;;;;;;4197740;28;20068;-36
2022/01/05 06:05:20;;;;;;;0.45;0.20;;;;;;;;;;4198150;28;20087;-36
2022/01/05 06:07:21;;;;;;;0.55;0.20;;;;;;;;;;4197650;28;20084;-35
2022/01/05 06:09:22;;;;;;;0.73;0.30;;;;;;;;;;4197703;28;20073;-35
2022/01/05 06:11:23;;;;;;;0.50;0.30;;;;;;;;;;4197610;28;20127;-36
2022/01/05 06:13:24;;;;;;;0.82;0.20;;;;;;;;;;4197658;28;20057;-35
2022/01/05 06:15:25;;;;;;;0.77;0.30;;;;;;;;;;4197874;28;20058;-36
2022/01/05 06:17:26;;;;;;;1.02;0.30;;;;;;;;;;4197974;28;20045;-36
2022/01/05 06:19:27;;;;;;;0.93;0.30;;;;;;;;;;4197927;28;20382;-36
2022/01/05 06:21:28;;;;;;;0.68;0.40;;;;;;;;;;4199384;28;20087;-36
2022/01/05 06:23:29;;;;;;;0.95;0.20;;;;;;;;;;4214173;28;20204;-37
2022/01/05 06:25:30;;;;;;;0.20;0.20;;;;;;;;;;4211085;28;20414;-35
2022/01/05 06:27:31;;;;;;;0.52;0.32;;;;;;;;;;4209614;28;20060;-35
2022/01/05 06:29:32;;;;;;;0.47;0.20;;;;;;;;;;4205791;28;20078;-36
2022/01/05 06:31:32;;;;;;;0.55;0.28;;;;;;;;;;4204286;28;20087;-36
2022/01/05 06:33:33;;;;;;;1.15;0.28;;;;;;;;;;4213814;28;20059;-35
2022/01/05 06:35:34;;;;;;;0.10;0.10;;;;;;;;;;4214255;28;20442;-36
2022/01/05 06:37:35;;;;;;;0.20;0.10;;;;;;;;;;4213968;28;20048;-36
2022/01/05 06:39:36;;;;;;;0.90;0.20;;;;;;;;;;4214410;28;20534;-36
2022/01/05 06:41:37;;;;;;;0.35;0.20;;;;;;;;;;4214568;28;20483;-35
2022/01/05 06:43:38;;;;;;;0.38;0.25;;;;;;;;;;4214436;28;20048;-35
2022/01/05 06:45:40;;;;;;;0.55;0.30;;;;;;;;;;4214238;28;20507;-36
2022/01/05 06:47:41;;;;;;;0.45;0.20;;;;;;;;;;4214434;28;20052;-36
2022/01/05 06:49:42;;;;;;;0.50;0.30;;;;;;;;;;4214438;28;20055;-35
2022/01/05 06:51:43;;;;;;;0.65;0.22;;;;;;;;;;4213746;28;20365;-35
2022/01/05 06:53:44;;;;;;;0.75;0.30;;;;;;;;;;4211567;28;20052;-37
2022/01/05 06:55:45;;;;;;;1.15;0.28;;;;;;;;;;4207945;28;20085;-36
2022/01/05 06:57:47;;;;;;;0.30;0.20;;;;;;;;;;4195633;28;20092;-35
2022/01/05 06:59:48;;;;;;;0.75;0.50;;;;;;;;;;4198672;28;20053;-36
2022/01/05 07:01:49;;;;;;;0.20;0.20;;;;;;;;;;4197285;28;20070;-36
2022/01/05 07:03:50;;;;;;;0.38;0.28;;;;;;;;;;4197483;28;20139;-35
2022/01/05 07:05:51;;;;;;;0.38;0.20;;;;;;;;;;4197301;28;20090;-35
2022/01/05 07:07:52;;;;;;;1.58;0.50;;;;;;;;;;4196741;28;20052;-36
2022/01/05 07:09:53;;;;;;;0.98;0.40;;;;;;;;;;4197311;28;20121;-35
2022/01/05 07:11:54;;;;;;;1.60;0.40;;;;;;;;;;4196947;28;20102;-36
2022/01/05 07:13:54;;;;;;;0.63;0.32;;;;;;;;;;4200649;28;20047;-35
2022/01/05 07:15:55;;;;;;;0.60;0.40;;;;;;;;;;4194650;28;20148;-36
2022/01/05 07:17:56;;;;;;;1.23;0.40;;;;;;;;;;4198536;28;20105;-36
2022/01/05 07:19:57;;;;;;;0.68;0.20;;;;;;;;;;4196980;28;20048;-36
2022/01/05 07:21:58;;;;;;;0.38;0.38;;;;;;;;;;4196412;28;20099;-36
2022/01/05 07:24:00;;;;;;;0.73;0.30;;;;;;;;;;4203059;28;20064;-36
2022/01/05 07:26:01;;;;;;;0.20;0.20;;;;;;;;;;4213523;28;20048;-36
2022/01/05 07:28:02;;;;;;;0.95;0.38;;;;;;;;;;4195486;28;20166;-35
2022/01/05 07:30:04;;;;;;;0.95;0.50;;;;;;;;;;4213653;28;20052;-36
2022/01/05 07:32:05;;;;;;;0.25;0.10;;;;;;;;;;4213498;28;20105;-35
2022/01/05 07:34:06;;;;;;;0.65;0.30;;;;;;;;;;4213329;28;20048;-35
2022/01/05 07:36:07;;;;;;;0.30;0.20;;;;;;;;;;4213338;28;20483;-36
2022/01/05 07:38:09;;;;;;;2.15;0.32;;;;;;;;;;4213085;28;20059;-35
2022/01/05 07:40:10;;;;;;;0.43;0.15;;;;;;;;;;4215852;28;20048;-35
2022/01/05 07:42:11;;;;;;;0.70;0.20;;;;;;;;;;4216779;28;20476;-36
2022/01/05 07:44:12;;;;;;;0.70;0.28;;;;;;;;;;4215590;28;20043;-35
2022/01/05 07:46:13;;;;;;;0.55;0.30;;;;;;;;;;4205164;28;20056;-35
2022/01/05 07:48:14;;;;;;;0.52;0.30;;;;;;;;;;4216730;28;20067;-35
2022/01/05 07:50:15;;;;;;;0.17;0.10;;;;;;;;;;4218954;28;20422;-37
2022/01/05 07:52:16;;;;;;;0.47;0.35;;;;;;;;;;4215885;28;20094;-36
2022/01/05 07:54:17;;;;;;;1.48;0.40;;;;;;;;;;4216560;28;20052;-35
2022/01/05 07:56:18;;;;;;;1.38;0.40;;;;;;;;;;4212639;28;20567;-36
2022/01/05 07:58:21;;;;;;;0.20;0.20;;;;;;;;;;4214832;28;20051;-36
2022/01/05 08:00:22;;;;;;;3.22;0.70;;;;;;;;;;4215958;28;20131;-36
2022/01/05 08:02:23;;;;;;;0.47;0.25;;;;;;;;;;4215782;28;20082;-35
2022/01/05 08:04:23;;;;;;;1.75;0.38;;;;;;;;;;4216105;28;20105;-36
2022/01/05 08:06:24;;;;;;;0.80;0.45;;;;;;;;;;4216018;28;20091;-36
2022/01/05 08:08:25;;;;;;;1.83;0.40;;;;;;;;;;4215888;28;20048;-36
2022/01/05 08:10:27;;;;;;;0.20;0.20;;;;;;;;;;4216025;28;20125;-36
2022/01/05 08:12:27;;;;;;;0.73;0.17;;;;;;;;;;4216015;28;20056;-36
2022/01/05 08:14:28;;;;;;;0.75;0.30;;;;;;;;;;4215443;28;20044;-36
2022/01/05 08:16:29;;;;;;;0.88;0.35;;;;;;;;;;4197459;28;20127;-36
2022/01/05 08:18:31;;;;;;;0.40;0.30;;;;;;;;;;4197208;28;20052;-36
2022/01/05 08:20:32;;;;;;;0.70;0.40;;;;;;;;;;4215494;28;20044;-35
2022/01/05 08:22:32;;;;;;;1.40;0.40;;;;;;;;;;4214835;28;20095;-36
2022/01/05 08:24:33;;;;;;;0.43;0.20;;;;;;;;;;4215134;28;20071;-36
2022/01/05 08:26:34;;;;;;;1.73;0.30;;;;;;;;;;4215257;28;20101;-36
2022/01/05 08:28:35;;;;;;;1.10;0.45;;;;;;;;;;4214607;28;20099;-35
2022/01/05 08:30:37;;;;;;;0.52;0.22;;;;;;;;;;4185916;28;20049;-35
2022/01/05 08:32:38;;;;;;;0.98;0.47;;;;;;;;;;4198187;28;20106;-36
2022/01/05 08:34:40;;;;;;;1.42;0.25;;;;;;;;;;4198849;28;20381;-35
2022/01/05 08:36:41;;;;;;;0.30;0.20;;;;;;;;;;4198763;28;20102;-35
2022/01/05 08:38:42;;;;;;;0.65;0.25;;;;;;;;;;4198868;28;20083;-36
2022/01/05 08:40:43;;;;;;;1.27;0.45;;;;;;;;;;4198448;28;20378;-35
2022/01/05 08:42:45;;;;;;;0.63;0.40;;;;;;;;;;4197919;28;20055;-35
2022/01/05 08:44:46;;;;;;;1.02;0.22;;;;;;;;;;4198120;28;20057;-35
2022/01/05 08:46:48;;;;;;;1.02;0.32;;;;;;;;;;4198288;28;20609;-35
2022/01/05 08:48:48;;;;;;;0.50;0.20;;;;;;;;;;4198249;28;20052;-35
2022/01/05 08:50:51;;;;;;;0.50;0.30;;;;;;;;;;4197972;28;20068;-36
2022/01/05 08:52:52;;;;;;;2.17;0.22;;;;;;;;;;4179770;28;20473;-35
2022/01/05 08:54:53;;;;;;;0.85;0.40;;;;;;;;;;4197621;28;20566;-35
2022/01/05 08:56:54;;;;;;;0.45;0.30;;;;;;;;;;4195073;28;20102;-35
2022/01/05 08:58:55;;;;;;;1.35;0.28;;;;;;;;;;4197896;28;20158;-34
2022/01/05 09:00:56;;;;;;;0.20;0.17;;;;;;;;;;4197321;28;20473;-34
2022/01/05 09:02:58;;;;;;;0.98;0.32;;;;;;;;;;4195130;28;20098;-34
2022/01/05 09:04:59;;;;;;;0.20;0.20;;;;;;;;;;4194889;28;20044;-34
2022/01/05 09:07:00;;;;;;;0.80;0.30;;;;;;;;;;4197083;28;20557;-35
2022/01/05 09:09:01;;;;;;;1.08;0.40;;;;;;;;;;4197516;28;20084;-35
2022/01/05 09:11:02;;;;;;;0.52;0.40;;;;;;;;;;4197987;28;20483;-35
2022/01/05 09:13:04;;;;;;;0.32;0.30;;;;;;;;;;4197136;28;20447;-35
2022/01/05 09:15:05;;;;;;;0.90;0.30;;;;;;;;;;4197880;28;20389;-34
2022/01/05 09:17:06;;;;;;;0.57;0.20;;;;;;;;;;4197156;28;20086;-35
2022/01/05 09:19:07;;;;;;;0.65;0.30;;;;;;;;;;4194302;28;20040;-35
2022/01/05 09:21:08;;;;;;;1.23;0.45;;;;;;;;;;4198345;28;20582;-35
2022/01/05 09:23:09;;;;;;;1.73;0.45;;;;;;;;;;4196995;28;20044;-35
2022/01/05 09:25:11;;;;;;;0.60;0.20;;;;;;;;;;4206718;28;20048;-35
2022/01/05 09:27:13;;;;;;;0.75;0.22;;;;;;;;;;4213917;28;20040;-36
2022/01/05 09:29:14;;;;;;;1.60;0.40;;;;;;;;;;4214567;28;20098;-36
2022/01/05 09:31:15;;;;;;;0.80;0.38;;;;;;;;;;4211523;28;20421;-35
2022/01/05 09:33:16;;;;;;;0.70;0.30;;;;;;;;;;4210180;28;20496;-36
2022/01/05 09:35:20;;;;;;;1.35;0.47;;;;;;;;;;4212200;28;20101;-36
2022/01/05 09:37:33;;;;;;;3.53;0.40;;;;;;;;;;4200311;28;20040;-35
2022/01/05 09:41:56;;;;;;;1.42;0.50;;;;;;;;;;4214032;28;20059;-36
2022/01/05 09:44:01;;;;;;;2.20;0.57;;;;;;;;;;4210372;28;20051;-35
2022/01/05 09:46:10;;;;;;;1.63;0.30;;;;;;;;;;4206521;28;20055;-35
2022/01/05 09:48:29;;;;;;;1.92;0.30;;;;;;;;;;4210385;28;20051;-35
2022/01/05 09:50:30;;;;;;;;;;;;;;;;;;4206492;28;20381;-35
2022/01/05 09:52:32;;;;;;;3.35;0.90;;;;;;;;;;4207125;28;19971;-35
2022/01/05 09:54:34;;;;;;;0.70;0.30;;;;;;;;;;4205898;28;20048;-35
2022/01/05 09:56:36;;;;;;;1.20;0.50;;;;;;;;;;4213548;28;20094;-35
2022/01/05 09:58:39;;;;;;;2.20;0.50;;;;;;;;;;4213753;28;20467;-35
2022/01/05 10:00:40;;;;;;;0.77;0.50;;;;;;;;;;4213899;28;20044;-35
2022/01/05 10:02:42;;;;;;;1.42;0.70;;;;;;;;;;4211063;28;20052;-35
2022/01/05 10:04:44;;;;;;;5.55;0.75;;;;;;;;;;4212916;28;20165;-35
2022/01/05 10:06:46;;;;;;;1.20;0.47;;;;;;;;;;4210297;28;20043;-36
2022/01/05 10:08:47;;;;;;;1.30;0.60;;;;;;;;;;4212023;28;20044;-35
2022/01/05 10:10:48;;;;;;;2.83;0.57;;;;;;;;;;4213164;28;20824;-35
2022/01/05 10:12:49;;;;;;;1.45;0.57;;;;;;;;;;4212854;28;20132;-34
2022/01/05 10:14:50;;;;;;;1.27;0.52;;;;;;;;;;4212271;28;20044;-35
2022/01/05 10:17:03;;;;;;;0.85;0.43;;;;;;;;;;4213574;28;20052;-35
2022/01/05 10:19:05;;;;;;;4.28;0.70;;;;;;;;;;4212973;28;20070;-35
2022/01/05 10:21:07;;;;;;;4.10;0.45;;;;;;;;;;4178830;28;20040;-34
2022/01/05 10:23:30;;;;;;;1.90;0.40;;;;;;;;;;4210328;27;20727;-35
2022/01/05 10:25:31;;;;;;;2.53;0.32;;;;;;;;;;4205910;28;20482;-36
2022/01/05 10:27:33;;;;;;;2.33;0.60;;;;;;;;;;4209795;28;20389;-36
2022/01/05 10:29:34;;;;;;;1.65;0.57;;;;;;;;;;4209296;28;20060;-35
2022/01/05 10:31:39;;;;;;;1.33;0.45;;;;;;;;;;4209538;28;20395;-36
2022/01/05 10:33:40;;;;;;;4.53;0.40;;;;;;;;;;4208430;28;20053;-35
2022/01/05 10:35:54;;;;;;;6.40;0.88;;;;;;;;;;4209684;28;20093;-35
2022/01/05 10:37:56;;;;;;;2.78;0.75;;;;;;;;;;4209771;28;20048;-36
2022/01/05 10:40:05;;;;;;;1.63;0.60;;;;;;;;;;4204934;28;20052;-36
2022/01/05 10:42:08;;;;;;;2.42;0.60;;;;;;;;;;4203554;28;20101;-35
2022/01/05 10:44:14;;;;;;;1.20;0.47;;;;;;;;;;4204718;28;20052;-35
2022/01/05 10:46:30;;;;;;;1.33;0.52;;;;;;;;;;4193697;28;20044;-33
2022/01/05 10:48:38;;;;;;;2.50;0.40;;;;;;;;;;4197413;28;20370;-33
2022/01/05 10:50:40;;;;;;;1.70;0.50;;;;;;;;;;4203647;28;20476;-33
2022/01/05 10:52:44;;;;;;;1.17;0.43;;;;;;;;;;4206043;28;20488;-35
2022/01/05 10:54:45;;;;;;;1.27;0.63;;;;;;;;;;4204606;28;20566;-31
2022/01/05 10:56:46;;;;;;;5.10;0.80;;;;;;;;;;4200236;28;20052;-32
2022/01/05 10:58:47;;;;;;;2.38;0.60;;;;;;;;;;4203428;28;20477;-34
2022/01/05 11:00:55;;;;;;;1.55;0.60;;;;;;;;;;4204864;28;20052;-34
2022/01/05 11:02:56;;;;;;;1.38;0.50;;;;;;;;;;4197957;28;20040;-35
2022/01/05 11:05:05;;;;;;;3.22;0.95;;;;;;;;;;4200940;28;20067;-30
2022/01/05 11:07:06;;;;;;;;;;;;;;;;;;4197982;28;20424;-33
2022/01/05 11:09:09;;;;;;;6.45;1.35;;;;;;;;;;4203519;28;19951;-30
2022/01/05 11:11:28;;;;;;;5.13;0.95;;;;;;;;;;4210229;28;20044;-33
2022/01/05 11:13:29;;;;;;;9.43;2.60;;;;;;;;;;4205004;28;20056;-33
2022/01/05 11:15:32;;;;;;;12.95;2.08;;;;;;;;;;4207784;28;20467;-32
2022/01/05 11:17:33;;;;;;;15.02;2.67;;;;;;;;;;4204122;28;20044;-31
2022/01/05 11:19:38;;;;;;;11.30;2.33;;;;;;;;;;4201178;28;20052;-34
2022/01/05 11:21:39;;;;;;;11.15;1.88;;;;;;;;;;4202556;28;20049;-34
2022/01/05 11:23:40;;;;;;;8.23;1.90;;;;;;;;;;4202305;28;20048;-34
2022/01/05 11:25:44;;;;;;;14.68;2.10;;;;;;;;;;4209623;28;20048;-34
2022/01/05 11:27:45;;;;;;;12.88;2.47;;;;;;;;;;4208086;28;20153;-32
2022/01/05 11:29:47;;;;;;;8.00;1.95;;;;;;;;;;4203024;28;20082;-35
2022/01/05 11:31:48;;;;;;;7.55;1.38;;;;;;;;;;4200439;28;20463;-35
2022/01/05 11:33:49;;;;;;;6.50;1.33;;;;;;;;;;4200419;28;20052;-36
2022/01/05 11:35:51;;;;;;;5.63;1.30;;;;;;;;;;4192969;28;20057;-36
2022/01/05 11:37:52;;;;;;;4.20;1.92;;;;;;;;;;4187560;28;20057;-35
2022/01/05 11:39:54;;;;;;;6.93;1.38;;;;;;;;;;4191297;28;20052;-39
2022/01/05 11:41:56;;;;;;;7.35;1.50;;;;;;;;;;4185211;28;20044;-33
2022/01/05 11:43:59;;;;;;;6.30;1.27;;;;;;;;;;4193576;28;20052;-34
2022/01/05 11:46:17;;;;;;;5.32;1.25;;;;;;;;;;4194091;28;20064;-34
2022/01/05 11:48:26;;;;;;;3.55;1.05;;;;;;;;;;4198835;28;20053;-33
2022/01/05 11:50:27;;;;;;;7.55;1.45;;;;;;;;;;4182839;28;20510;-33
2022/01/05 11:52:46;;;;;;;3.55;0.95;;;;;;;;;;4181658;28;20106;-35
2022/01/05 11:55:01;;;;;;;5.35;1.08;;;;;;;;;;4183915;28;20152;-36
2022/01/05 11:57:07;;;;;;;3.80;1.10;;;;;;;;;;4188774;28;20447;-33
2022/01/05 11:59:19;;;;;;;2.00;0.95;;;;;;;;;;4179563;28;20109;-35
2022/01/05 12:01:20;;;;;;;4.95;0.82;;;;;;;;;;4191364;28;20048;-32
2022/01/05 12:03:40;;;;;;;1.35;0.50;;;;;;;;;;4194832;28;20088;-37
2022/01/05 12:06:00;;;;;;;2.35;0.80;;;;;;;;;;4194173;28;20048;-32
2022/01/05 12:08:00;;;;;;;;;;;;;;;;;;4179933;28;20048;-33
2022/01/05 12:10:21;;;;;;;2.97;0.65;;;;;;;;;;4192325;28;19923;-34
2022/01/05 12:12:24;;;;;;;1.60;0.50;;;;;;;;;;4191479;28;20052;-34
2022/01/05 12:14:25;;;;;;;1.13;0.60;;;;;;;;;;4181978;28;20109;-35